createdAt,value
2023-03-21T00:02:24.048Z,21.60
2023-03-21T00:06:25.555Z,24.08
2023-03-21T00:10:39.898Z,24.20
2023-03-21T00:14:46.572Z,22.20
2023-03-21T00:18:50.402Z,23.75
2023-03-21T00:22:51.826Z,23.90
2023-03-21T00:26:53.904Z,23.25
2023-03-21T00:30:59.406Z,23.98
2023-03-21T00:35:23.335Z,24.35
2023-03-21T00:39:22.238Z,31.20
2023-03-21T00:43:23.714Z,30.08
2023-03-21T00:47:26.623Z,26.90
2023-03-21T00:51:28.089Z,30.40
2023-03-21T00:55:29.560Z,30.33
2023-03-21T00:59:31.073Z,30.88
2023-03-21T01:03:34.560Z,30.90
2023-03-21T01:07:36.000Z,31.05
2023-03-21T01:11:37.470Z,30.65
2023-03-21T01:15:44.276Z,30.67
2023-03-21T01:19:51.943Z,29.25
2023-03-21T01:23:53.897Z,33.78
2023-03-21T01:27:55.310Z,32.45
2023-03-21T01:31:56.785Z,32.13
2023-03-21T01:36:10.354Z,25.52
2023-03-21T01:40:19.064Z,27.50
2023-03-21T01:44:20.476Z,27.35
2023-03-21T01:48:24.050Z,30.20
2023-03-21T01:52:37.116Z,27.77
2023-03-21T01:56:40.273Z,37.50
2023-03-21T02:00:41.896Z,27.90
2023-03-21T02:04:43.742Z,28.45
2023-03-21T02:08:46.560Z,28.80
2023-03-21T02:12:48.290Z,30.20
2023-03-21T02:16:56.128Z,37.83
2023-03-21T02:21:18.887Z,29.25
2023-03-21T02:25:41.119Z,31.35
2023-03-21T02:30:26.435Z,33.13
2023-03-21T02:38:52.533Z,34.55
2023-03-21T02:43:04.278Z,38.13
2023-03-21T02:47:11.833Z,44.17
2023-03-21T02:51:18.682Z,37.90
2023-03-21T02:55:24.974Z,60.05
2023-03-21T02:59:27.431Z,33.47
2023-03-21T03:03:34.534Z,35.58
2023-03-21T03:07:42.381Z,38.50
2023-03-21T03:11:46.645Z,37.08
2023-03-21T03:15:58.057Z,35.40
2023-03-21T03:20:17.195Z,44.55
2023-03-21T03:24:26.459Z,35.40
2023-03-21T03:28:33.153Z,38.90
2023-03-21T03:32:38.945Z,38.45
2023-03-21T03:36:42.965Z,33.95
2023-03-21T03:40:48.759Z,35.72
2023-03-21T03:44:51.978Z,33.92
2023-03-21T03:48:57.691Z,32.13
2023-03-21T03:53:09.825Z,33.95
2023-03-21T03:57:17.892Z,35.00
2023-03-21T04:01:20.642Z,32.03
2023-03-21T04:05:22.064Z,34.47
2023-03-21T04:09:37.265Z,35.00
2023-03-21T04:13:44.397Z,33.45
2023-03-21T04:17:47.135Z,32.47
2023-03-21T04:21:48.601Z,44.20
2023-03-21T04:25:56.345Z,33.00
2023-03-21T04:29:58.476Z,37.50
2023-03-21T04:34:03.537Z,33.15
2023-03-21T04:38:04.998Z,33.78
2023-03-21T04:42:06.411Z,36.13
2023-03-21T04:46:07.856Z,35.05
2023-03-21T04:50:12.007Z,39.33
2023-03-21T04:58:15.080Z,37.70
2023-03-21T05:02:16.536Z,37.80
2023-03-21T05:06:19.274Z,38.95
2023-03-21T05:10:20.677Z,38.85
2023-03-21T05:14:24.728Z,35.97
2023-03-21T05:18:26.304Z,34.80
2023-03-21T05:22:29.068Z,35.25
2023-03-21T05:26:30.449Z,37.92
2023-03-21T05:30:33.518Z,30.67
2023-03-21T05:34:34.976Z,26.08
2023-03-21T05:38:38.803Z,25.10
2023-03-21T05:42:40.227Z,25.45
2023-03-21T05:46:42.277Z,21.90
2023-03-21T05:50:43.671Z,21.75
2023-03-21T05:54:46.503Z,23.13
2023-03-21T05:58:47.924Z,19.75
2023-03-21T06:02:49.422Z,20.98
2023-03-21T06:06:51.156Z,39.50
2023-03-21T06:10:53.907Z,22.50
2023-03-21T06:14:55.420Z,21.38
2023-03-21T06:18:56.928Z,23.77
2023-03-21T06:22:58.464Z,29.77
2023-03-21T06:27:03.520Z,16.80
2023-03-21T06:31:05.873Z,17.13
2023-03-21T06:35:07.872Z,15.88
2023-03-21T06:39:09.275Z,16.65
2023-03-21T06:43:12.014Z,15.00
2023-03-21T06:47:13.464Z,19.08
2023-03-21T06:51:16.028Z,15.93
2023-03-21T06:55:17.562Z,18.80
2023-03-21T06:59:20.349Z,12.98
2023-03-21T07:03:21.768Z,17.50
2023-03-21T07:07:25.299Z,14.57
2023-03-21T07:11:26.702Z,14.30
2023-03-21T07:15:29.454Z,14.48
2023-03-21T07:19:30.905Z,13.43
2023-03-21T07:23:32.444Z,19.52
2023-03-21T07:27:33.869Z,16.33
2023-03-21T07:31:36.641Z,18.15
2023-03-21T07:35:38.979Z,20.98
2023-03-21T07:39:40.573Z,18.48
2023-03-21T07:43:41.984Z,18.80
2023-03-21T07:47:44.805Z,16.98
2023-03-21T07:51:46.239Z,15.32
2023-03-21T07:55:50.632Z,14.90
2023-03-21T07:59:52.041Z,13.52
2023-03-21T08:03:55.024Z,15.63
2023-03-21T08:07:56.840Z,17.92
2023-03-21T08:11:58.249Z,16.67
2023-03-21T08:15:59.797Z,15.48
2023-03-21T08:20:02.580Z,15.00
2023-03-21T08:24:04.317Z,13.95
2023-03-21T08:28:05.758Z,15.57
2023-03-21T08:32:07.226Z,15.32
2023-03-21T08:36:10.857Z,13.20
2023-03-21T08:40:14.523Z,14.32
2023-03-21T08:44:15.990Z,13.75
2023-03-21T08:48:17.604Z,12.45
2023-03-21T08:52:20.417Z,10.63
2023-03-21T08:56:21.855Z,14.60
2023-03-21T09:00:23.783Z,13.98
2023-03-21T09:04:25.321Z,10.25
2023-03-21T09:08:28.154Z,14.77
2023-03-21T09:12:29.749Z,10.88
2023-03-21T09:16:31.496Z,11.50
2023-03-21T09:20:33.057Z,11.60
2023-03-21T09:24:35.904Z,12.68
2023-03-21T09:28:37.320Z,12.70
2023-03-21T09:32:38.847Z,9.88
2023-03-21T09:36:40.270Z,10.02
2023-03-21T09:40:56.928Z,16.20
2023-03-21T09:45:07.945Z,13.00
2023-03-21T09:49:16.441Z,12.48
2023-03-21T09:53:22.613Z,13.10
2023-03-21T09:57:31.501Z,9.82
2023-03-21T10:01:33.789Z,21.20
2023-03-21T10:05:38.561Z,9.30
2023-03-21T10:09:41.415Z,14.15
2023-03-21T10:13:49.243Z,13.13
2023-03-21T10:17:59.628Z,13.40
2023-03-21T10:22:03.469Z,9.52
2023-03-21T10:26:06.961Z,9.55
2023-03-21T10:30:20.175Z,11.88
2023-03-21T10:34:29.832Z,12.70
2023-03-21T10:38:31.345Z,10.48
2023-03-21T10:42:33.691Z,9.15
2023-03-21T10:46:36.766Z,8.48
2023-03-21T10:50:38.493Z,9.07
2023-03-21T10:54:40.187Z,12.38
2023-03-21T10:58:44.684Z,8.98
2023-03-21T11:02:50.845Z,12.07
2023-03-21T11:06:54.195Z,11.02
2023-03-21T11:11:01.406Z,9.43
2023-03-21T11:15:26.244Z,12.98
2023-03-21T11:19:32.811Z,11.68
2023-03-21T11:23:38.446Z,15.45
2023-03-21T11:31:49.225Z,10.75
2023-03-21T11:36:03.766Z,9.07
2023-03-21T11:40:19.625Z,8.27
2023-03-21T11:44:27.502Z,8.02
2023-03-21T11:48:29.077Z,9.40
2023-03-21T11:52:38.889Z,8.20
2023-03-21T11:56:44.102Z,11.32
2023-03-21T12:00:52.027Z,9.70
2023-03-21T12:04:57.091Z,13.25
2023-03-21T12:09:09.235Z,8.30
2023-03-21T12:13:28.192Z,7.00
2023-03-21T12:17:48.412Z,7.88
2023-03-21T12:22:02.095Z,7.15
2023-03-21T12:26:14.002Z,7.88
2023-03-21T12:30:32.898Z,8.50
2023-03-21T12:35:09.294Z,9.02
2023-03-21T12:39:25.329Z,7.00
2023-03-21T12:43:41.798Z,8.20
2023-03-21T12:47:47.174Z,9.10
2023-03-21T12:51:54.856Z,10.52
2023-03-21T12:56:01.257Z,7.00
2023-03-21T13:00:10.374Z,11.77
2023-03-21T13:04:32.977Z,7.05
2023-03-21T13:08:38.475Z,9.68
2023-03-21T13:12:56.942Z,6.28
2023-03-21T13:17:06.795Z,8.85
2023-03-21T13:21:15.484Z,7.63
2023-03-21T13:25:19.364Z,7.00
2023-03-21T13:29:24.332Z,7.13
2023-03-21T13:33:29.597Z,6.80
2023-03-21T13:37:33.764Z,4.85
2023-03-21T13:41:37.826Z,4.95
2023-03-21T13:45:46.128Z,6.18
2023-03-21T13:50:22.110Z,5.50
2023-03-21T13:54:28.367Z,6.13
2023-03-21T13:58:34.851Z,5.55
2023-03-21T14:02:38.909Z,5.32
2023-03-21T14:06:51.129Z,4.35
2023-03-21T14:10:56.194Z,6.90
2023-03-21T14:15:14.125Z,5.28
2023-03-21T14:19:18.566Z,5.45
2023-03-21T14:23:22.508Z,3.65
2023-03-21T14:27:29.433Z,5.68
2023-03-21T14:31:32.170Z,5.45
2023-03-21T14:35:33.795Z,5.00
2023-03-21T14:39:36.602Z,5.53
2023-03-21T14:43:38.046Z,10.05
2023-03-21T14:47:39.511Z,6.18
2023-03-21T14:51:41.217Z,4.47
2023-03-21T14:55:47.672Z,4.60
2023-03-21T14:59:52.315Z,3.80
2023-03-21T15:03:53.861Z,4.75
2023-03-21T15:07:58.106Z,6.50
2023-03-21T15:12:07.198Z,5.85
2023-03-21T15:16:11.106Z,5.25
2023-03-21T15:20:14.554Z,6.22
2023-03-21T15:24:20.314Z,5.32
2023-03-21T15:28:25.040Z,11.07
2023-03-21T15:32:28.285Z,6.78
2023-03-21T15:36:34.613Z,7.50
2023-03-21T15:40:36.223Z,7.88
2023-03-21T15:44:45.764Z,5.68
2023-03-21T15:48:47.207Z,7.18
2023-03-21T15:52:49.906Z,4.57
2023-03-21T15:56:53.908Z,5.28
2023-03-21T16:01:02.482Z,7.90
2023-03-21T16:05:22.386Z,6.10
2023-03-21T16:09:23.995Z,5.43
2023-03-21T16:13:25.408Z,6.43
2023-03-21T16:17:33.054Z,7.05
2023-03-21T16:21:34.994Z,6.45
2023-03-21T16:25:36.610Z,5.88
2023-03-21T16:29:38.013Z,11.93
2023-03-21T16:33:40.824Z,5.05
2023-03-21T16:37:42.977Z,6.85
2023-03-21T16:41:44.694Z,6.93
2023-03-21T16:45:46.192Z,7.07
2023-03-21T16:49:49.221Z,8.07
2023-03-21T16:53:50.640Z,6.35
2023-03-21T16:57:52.916Z,5.75
2023-03-21T17:01:54.345Z,6.95
2023-03-21T17:05:57.132Z,7.47
2023-03-21T17:09:58.607Z,5.28
2023-03-21T17:14:00.057Z,5.18
2023-03-21T17:18:01.736Z,5.55
2023-03-21T17:22:04.598Z,9.48
2023-03-21T17:26:06.260Z,6.50
2023-03-21T17:30:19.280Z,11.52
2023-03-21T17:34:20.734Z,10.25
2023-03-21T17:38:23.532Z,9.60
2023-03-21T17:42:25.090Z,6.43
2023-03-21T17:46:27.638Z,5.68
2023-03-21T17:50:32.946Z,6.60
2023-03-21T17:54:35.676Z,7.38
2023-03-21T17:58:37.091Z,5.65
2023-03-21T18:02:39.336Z,6.85
2023-03-21T18:06:40.756Z,10.95
2023-03-21T18:10:43.526Z,9.10
2023-03-21T18:14:44.941Z,7.30
2023-03-21T18:18:46.690Z,5.55
2023-03-21T18:22:49.047Z,7.63
2023-03-21T18:26:51.831Z,10.10
2023-03-21T18:31:14.389Z,10.23
2023-03-21T18:35:16.224Z,9.93
2023-03-21T18:39:17.643Z,9.77
2023-03-21T18:47:41.842Z,9.52
2023-03-21T18:51:43.340Z,12.32
2023-03-21T18:55:46.818Z,8.82
2023-03-21T18:59:50.446Z,7.72
2023-03-21T19:04:15.382Z,14.70
2023-03-21T19:08:13.237Z,14.32
2023-03-21T19:12:14.633Z,11.45
2023-03-21T19:16:17.971Z,9.30
2023-03-21T19:20:19.987Z,10.75
2023-03-21T19:24:27.788Z,9.10
2023-03-21T19:28:30.112Z,12.27
2023-03-21T19:32:33.219Z,13.65
2023-03-21T19:36:34.952Z,8.95
2023-03-21T19:40:39.003Z,8.30
2023-03-21T19:44:40.605Z,8.15
2023-03-21T19:48:44.848Z,10.38
2023-03-21T19:52:46.366Z,7.25
2023-03-21T19:56:48.341Z,7.05
2023-03-21T20:00:50.005Z,14.70
2023-03-21T20:04:52.844Z,12.57
2023-03-21T20:13:16.239Z,13.10
2023-03-21T20:17:17.667Z,11.55
2023-03-21T20:21:25.402Z,10.88
2023-03-21T20:25:27.339Z,10.60
2023-03-21T20:30:07.594Z,10.13
2023-03-21T20:33:50.878Z,13.85
2023-03-21T20:37:53.667Z,12.95
2023-03-21T20:41:55.071Z,8.90
2023-03-21T20:46:00.253Z,13.38
2023-03-21T20:50:01.822Z,11.70
2023-03-21T20:54:04.997Z,10.07
2023-03-21T20:58:26.779Z,10.07
2023-03-21T21:02:27.847Z,9.35
2023-03-21T21:06:29.375Z,8.77
2023-03-21T21:10:33.466Z,9.40
2023-03-21T21:14:35.941Z,9.10
2023-03-21T21:18:38.077Z,15.02
2023-03-21T21:22:40.229Z,11.25
2023-03-21T21:26:43.749Z,10.77
2023-03-21T21:30:45.575Z,13.10
2023-03-21T21:34:47.143Z,8.82
2023-03-21T21:38:48.589Z,10.60
2023-03-21T21:42:51.484Z,9.82
2023-03-21T21:46:52.898Z,10.93
2023-03-21T21:50:54.400Z,11.43
2023-03-21T21:54:55.807Z,13.32
2023-03-21T21:58:59.152Z,13.68
2023-03-21T22:03:01.761Z,17.77
2023-03-21T22:07:03.218Z,13.52
2023-03-21T22:11:05.704Z,12.82
2023-03-21T22:15:09.843Z,12.73
2023-03-21T22:19:11.283Z,13.98
2023-03-21T22:23:12.934Z,14.40
2023-03-21T22:27:14.350Z,12.73
2023-03-21T22:31:17.259Z,15.65
2023-03-21T22:35:18.954Z,12.32
2023-03-21T22:39:21.055Z,31.17
2023-03-21T22:43:22.513Z,15.27
2023-03-21T22:47:25.380Z,18.13
2023-03-21T22:51:26.883Z,15.38
2023-03-21T22:55:28.331Z,25.88
2023-03-21T22:59:30.123Z,14.60
2023-03-21T23:03:32.870Z,12.13
2023-03-21T23:07:34.401Z,14.95
2023-03-21T23:11:36.148Z,18.65
2023-03-21T23:15:37.734Z,13.35
2023-03-21T23:19:41.191Z,14.40
2023-03-21T23:23:43.936Z,12.23
2023-03-21T23:27:45.356Z,12.10
2023-03-21T23:31:46.910Z,14.93
2023-03-21T23:35:49.707Z,10.35
2023-03-21T23:44:00.147Z,12.27
2023-03-21T23:48:01.657Z,13.10
2023-03-21T23:52:04.806Z,12.93
2023-03-21T23:56:10.686Z,18.42
